Not logged in
PANGAEA.
Data Publisher for Earth & Environmental Science

Augustine, John (2009): Radiosonde measurements from station Boulder, SURFRAD (2009-06) [dataset]. NOAA - Air Resources Laboratory, Boulder, PANGAEA, https://doi.org/10.1594/PANGAEA.724345

Always quote citation above when using data! You can download the citation in several formats below.

Published: 2009-07-07DOI registered: 2009-08-04

RIS CitationBibTeX Citation ShareShow MapGoogle Earth

Other version:
Augustine, John (2009): BSRN Station-to-archive file for station Boulder (2009-06) [dataset]. ftp://ftp.bsrn.awi.de/bos/bos0609.dat.gz
Coverage:
Latitude: 40.125000 * Longitude: -105.237000
Date/Time Start: 2009-06-01T11:01:00 * Date/Time End: 2009-06-30T11:55:00
Minimum ALTITUDE: 1611 m * Maximum ALTITUDE: 16670 m
Event(s):
BOS (Boulder) * Latitude: 40.125000 * Longitude: -105.237000 * Date/Time: 1995-07-01T00:00:00 * Elevation: 1689.0 m * Location: Colorado, United States of America * Method/Device: Monitoring station (MONS) * Comment: BSRN station no: 34; Surface type: grass; Topography type: hilly, rural; Station scientist: John A. Augustine (john.a.augustine@noaa.gov)
Comment:
Start location: Denver, CO; Distance from radiation site: 40 km; If launch time is exactly 00Z or 12Z, the actual launch time is likely unknown
Parameter(s):
#NameShort NameUnitPrincipal InvestigatorMethod/DeviceComment
DATE/TIMEDate/TimeGeocode
ALTITUDEAltitudemGeocode
Pressure, at given altitudePPPPhPaAugustine, JohnRadiosonde, Vaisala, RS80-57H
Temperature, airTTT°CAugustine, JohnRadiosonde, Vaisala, RS80-57H
Dew/frost pointTdTdTd°CAugustine, JohnRadiosonde, Vaisala, RS80-57H
Wind directiondddegAugustine, JohnRadiosonde, Vaisala, RS80-57H
Wind speedffm/sAugustine, JohnRadiosonde, Vaisala, RS80-57H
Size:
8209 data points

Data

Download dataset as tab-delimited text — use the following character encoding:


Date/Time

Altitude [m]

PPPP [hPa]

TTT [°C]

TdTdTd [°C]

dd [deg]

ff [m/s]
2009-06-01T11:01161183713.811.500
2009-06-01T11:01172282613.811.3
2009-06-01T11:02206279311.68.4
2009-06-01T11:03222177811.66.9
2009-06-01T11:0425477489.26.2
2009-06-01T11:0630227067.42.7
2009-06-01T11:0631047006.62.03502
2009-06-01T11:0836176571.80.5
2009-06-01T11:104405595-3.9-3.9
2009-06-01T11:125020550-7.1-7.1
2009-06-01T11:145528515-10.3-11.8
2009-06-01T11:155770500-12.1-13.61050
2009-06-01T11:156033483-14.3-14.9
2009-06-01T11:196956427-19.1-20.5
2009-06-01T11:207440400-22.9-25.2852
2009-06-01T11:217756383-25.3-27.4
2009-06-01T11:228044368-27.9-30.3
2009-06-01T11:248708335-34.3-41.3
2009-06-01T11:258919325-36.1-47.1
2009-06-01T11:279470300-40.5-50.51756
2009-06-01T11:3110690250-51.114510
2009-06-01T11:3110873243-52.9
2009-06-01T11:3512100200-62.716516
2009-06-01T11:3612224196-62.7
2009-06-01T11:3612287194-60.9
2009-06-01T11:3712449189-59.9
2009-06-01T11:3812786179-61.7
2009-06-01T11:3913251166-62.1
2009-06-01T11:4013480160-58.5
2009-06-01T11:4113801152-59.3
2009-06-01T11:4113890150-58.72606
2009-06-01T11:4213974148-58.5
2009-06-01T11:4314321140-60.5
2009-06-01T11:4314502136-59.1
2009-06-01T11:4414689132-59.1
2009-06-01T11:4514979126-60.9
2009-06-01T11:4515180122-59.7
2009-06-01T11:4615440117-60.7
2009-06-01T11:4715547115-59.9
2009-06-01T11:4815938108-59.7
2009-06-01T11:4816055106-58.7
2009-06-01T11:5016420100-59.73305
2009-06-01T23:01161183517.811.81002
2009-06-01T23:01168282817.68.6
2009-06-01T23:02178581817.47.4
2009-06-01T23:0630967006.02.855
2009-06-01T23:0837076490.80.0
2009-06-01T23:114529585-4.5-5.3
2009-06-01T23:135283531-8.3-9.2
2009-06-01T23:145639507-11.1-12.9
2009-06-01T23:155760500-12.5-15.91803
2009-06-01T23:155867493-13.5-19.5
2009-06-01T23:176570449-18.1-29.1
2009-06-01T23:186704441-18.7-27.7
2009-06-01T23:186806435-19.5-31.5
2009-06-01T23:197030422-20.5-29.5
2009-06-01T23:197171414-21.5-32.5
2009-06-01T23:207332405-22.5-32.5
2009-06-01T23:207430400-23.3-33.3554
2009-06-01T23:217651388-25.3-35.3
2009-06-01T23:217782381-26.3-35.3
2009-06-01T23:227896375-27.3-33.3
2009-06-01T23:228050367-28.5-34.5
2009-06-01T23:279460300-39.9-46.9654
2009-06-01T23:3110680250-50.71906
2009-06-01T23:3210917241-52.9
2009-06-01T23:3512090200-60.91007
2009-06-01T23:3612152198-59.9
2009-06-01T23:3612311193-60.7
2009-06-01T23:3712608184-59.1
2009-06-01T23:3812850177-59.5
2009-06-01T23:3812921175-58.5
2009-06-01T23:3913253166-57.1
2009-06-01T23:4013446161-58.1
2009-06-01T23:4013645156-56.9
2009-06-01T23:4113900150-57.523511
2009-06-01T23:4214158144-56.7
2009-06-01T23:4314291141-57.7
2009-06-01T23:4414849129-58.9
2009-06-01T23:4615199122-58.1
2009-06-01T23:4715568115-60.3
2009-06-01T23:4715788111-59.5
2009-06-01T23:4815844110-59.7
2009-06-01T23:5016440100-62.72605
2009-06-02T11:06161184010.49.8405
2009-06-02T11:06164183710.49.9
2009-06-02T11:0822957736.26.2
2009-06-02T11:0926507404.4
2009-06-02T11:1131077002.62011
2009-06-02T11:1132586871.81.8
2009-06-02T11:175031549-6.7-6.7
2009-06-02T11:205770500-11.3-11.8257
2009-06-02T11:216192473-14.1-15.1
2009-06-02T11:257440400-23.1-25.73558
2009-06-02T11:298522344-31.9-35.9
2009-06-02T11:329480300-40.1-46.1551
2009-06-02T11:3510536256-50.3-57.3
2009-06-02T11:3610690250-51.5958
2009-06-02T11:3911620216-58.9
2009-06-02T11:4012100200-61.115014
2009-06-02T11:4312787179-60.9
2009-06-02T11:4413107170-60.7
2009-06-02T11:4413255166-59.1
2009-06-02T11:4613683155-59.3
2009-06-02T11:4613806152-57.5
2009-06-02T11:4613890150-57.724511
2009-06-02T11:4914597134-59.1
2009-06-02T11:4914787130-57.1
2009-06-02T11:5015136123-57.1
2009-06-02T11:5315949108-60.9
2009-06-02T11:5316065106-60.1
2009-06-02T11:5516440100-61.13452
2009-06-02T23:0216118468.47.000
2009-06-02T23:0216408437.66.3
2009-06-02T23:0318868185.45.1
2009-06-02T23:0626947400.80.8
2009-06-02T23:073149700-1.1-1.43254
2009-06-02T23:103932634-3.9-5.9
2009-06-02T23:104197613-4.1-7.4
2009-06-02T23:124726573-6.7-10.2
2009-06-02T23:155504518-10.7-15.7
2009-06-02T23:165790500-12.7-18.73057
2009-06-02T23:176131478-14.7-20.7
2009-06-02T23:186452458-16.9-21.8
2009-06-02T23:217450400-23.3-31.32957
2009-06-02T23:227653389-24.5-33.5
2009-06-02T23:237956373-26.9-36.9
2009-06-02T23:258636339-32.1-51.1
2009-06-02T23:289490300-39.7-54.72557
2009-06-02T23:3210710250-50.9-63.92256
2009-06-02T23:3411356226-57.1-68.1
2009-06-02T23:3612120200-63.7-72.724010
2009-06-02T23:3812631184-62.9-72.9
2009-06-02T23:3912801179-61.1-71.1
2009-06-02T23:3912906176-61.5-71.5
2009-06-02T23:4013121170-60.1-71.1
2009-06-02T23:4013232167-60.7-71.7
2009-06-02T23:4113421162-58.9-69.9
2009-06-02T23:4213697155-58.9-69.9
2009-06-02T23:4213779153-57.5-69.5
2009-06-02T23:4213820152-57.1-69.1
2009-06-02T23:4213910150-57.5-69.524015
2009-06-02T23:4314037147-57.9-69.9
2009-06-02T23:4314123145-56.9-68.9
2009-06-02T23:4414480137-58.3-70.3
2009-06-02T23:4514667133-56.5-69.5
2009-06-02T23:4715369119-57.7-70.7
2009-06-02T23:4715476117-56.5-70.5
2009-06-02T23:4915866110-57.3-71.3
2009-06-02T23:5016217104-60.3-73.3
2009-06-02T23:5116460100-60.7-73.72355
2009-06-03T11:0216118448.25.31801
2009-06-03T11:0216508408.25.5
2009-06-03T11:0320288025.44.6
2009-06-03T11:0526147462.82.8
2009-06-03T11:0627567334.63.4
2009-06-03T11:0730037113.41.2
2009-06-03T11:0731367004.41.62553
2009-06-03T11:0731596984.41.5
2009-06-03T11:0937826460.8-1.3
2009-06-03T11:124595583-4.5-7.7
2009-06-03T11:135022552-6.3-11.3
2009-06-03T11:155426524-9.9-12.3
2009-06-03T11:165800500-12.1-15.02859
2009-06-03T11:165892494-12.5-15.5
2009-06-03T11:196694444-19.3-21.8
2009-06-03T11:196829436-19.9-22.0
2009-06-03T11:206966428-20.3-23.5
2009-06-03T11:217470400-24.1-27.825512
2009-06-03T11:227580394-24.7-28.5
2009-06-03T11:227785383-26.1-31.1
2009-06-03T11:248169363-29.3-36.3
2009-06-03T11:289500300-40.9-49.92355
2009-06-03T11:3210710250-51.52358
2009-06-03T11:3310946241-53.7
2009-06-03T11:3612110200-63.52609
2009-06-03T11:3812457189-62.9
2009-06-03T11:3913000173-63.3
2009-06-03T11:4013107170-62.5
2009-06-03T11:4013217167-62.5
2009-06-03T11:4113483160-58.9
2009-06-03T11:4113641156-58.7
2009-06-03T11:4213845151-59.7
2009-06-03T11:4213890150-59.327012
2009-06-03T11:4313974148-58.7
2009-06-03T11:4314189143-58.7
2009-06-03T11:4514599134-56.1
2009-06-03T11:4514791130-56.9
2009-06-03T11:4715298120-55.5
2009-06-03T11:4915904109-59.1
2009-06-03T11:5116450100-60.924011
2009-06-03T23:02161184118.210.23601
2009-06-03T23:02169283316.28.2
2009-06-03T23:02176382615.48.4
2009-06-03T23:03195980714.88.8
2009-06-03T23:03202280114.46.4
2009-06-03T23:04217078714.82.8
2009-06-03T23:05261874612.0-1.0
2009-06-03T23:0731487007.8-3.230511
2009-06-03T23:0835426675.4-5.6
2009-06-03T23:114338604-1.9-7.9
2009-06-03T23:124644581-3.9-11.9
2009-06-03T23:134974557-6.7-13.7
2009-06-03T23:155548517-12.1-16.0
2009-06-03T23:165820500-13.3-16.329513
2009-06-03T23:176113481-14.5-20.5
2009-06-03T23:196898433-20.7-29.7
2009-06-03T23:207070423-22.1-28.1
2009-06-03T23:217351407-24.3-30.3
2009-06-03T23:217480400-24.7-30.727514
2009-06-03T23:217553396-25.1-32.1
2009-06-03T23:238138365-29.3-39.3
2009-06-03T23:258577343-33.3-42.3
2009-06-03T23:268973324-36.9-49.9
2009-06-03T23:289500300-41.1-52.129512
2009-06-03T23:3010083275-46.5-57.5
2009-06-03T23:3210710250-51.9-61.929017
2009-06-03T23:3310999239-54.5-64.5
2009-06-03T23:3511552219-58.3-67.3
2009-06-03T23:3511726213-59.1-68.1
2009-06-03T23:3612120200-61.5-70.530523
2009-06-03T23:3812504188-60.1
2009-06-03T23:3812739181-62.3
2009-06-03T23:3912946175-62.9
2009-06-03T23:4013053172-61.1
2009-06-03T23:4013126170-60.9
2009-06-03T23:4113422162-62.9
2009-06-03T23:4113460161-61.5
2009-06-03T23:4113537159-61.5
2009-06-03T23:4113616157-59.3
2009-06-03T23:4213736154-59.3
2009-06-03T23:4213910150-57.7-67.725519
2009-06-03T23:4213952149-56.9
2009-06-03T23:4314124145-57.5
2009-06-03T23:4514624134-54.9
2009-06-03T23:4614965127-56.7
2009-06-03T23:4615116124-56.1
2009-06-03T23:4715484117-56.9
2009-06-03T23:4915872110-58.7
2009-06-03T23:5116470100-61.5-72.526510
2009-06-04T11:0116118429.88.9901
2009-06-04T11:02177082611.29.9
2009-06-04T11:02182082111.410.1
2009-06-04T11:0321607889.47.5
2009-06-04T11:0322347818.88.8
2009-06-04T11:0424157647.87.8
2009-06-04T11:0425677507.85.2
2009-06-04T11:0426557428.63.6
2009-06-04T11:0528347268.21.2
2009-06-04T11:0631487005.8-1.22955
2009-06-04T11:0735636652.4-2.5
2009-06-04T11:0838956380.2-4.1
2009-06-04T11:104213613-1.1-10.1
2009-06-04T11:114556587-3.3-11.3
2009-06-04T11:114596584-3.7-13.7
2009-06-04T11:135149544-8.5-13.5
2009-06-04T11:145584514-12.3-18.3
2009-06-04T11:145673508-12.9-17.4
2009-06-04T11:155810500-13.9-18.931016
2009-06-04T11:155840498-13.9-18.9
2009-06-04T11:166103481-14.7-21.7
2009-06-04T11:186753441-19.1-27.1
2009-06-04T11:186940430-20.3-27.3
2009-06-04T11:207470400-24.7-30.728515
2009-06-04T11:207506398-24.9-30.9
2009-06-04T11:217671389-26.3-30.9
2009-06-04T11:238264358-31.1-38.1
2009-06-04T11:258792332-35.9-40.2
2009-06-04T11:279490300-41.5-47.529515
2009-06-04T11:289835285-44.5-51.5
2009-06-04T11:3010491258-50.1-57.1
2009-06-04T11:3110700250-51.328017
2009-06-04T11:3311376225-55.9
2009-06-04T11:3511989204-61.5
2009-06-04T11:3512120200-62.328021
2009-06-04T11:3612402191-63.9
2009-06-04T11:3812833178-63.9
2009-06-04T11:3913296165-63.9
2009-06-04T11:4013408162-63.1
2009-06-04T11:4113678155-64.1
2009-06-04T11:4113798152-63.3
2009-06-04T11:4113880150-63.728018
2009-06-04T11:4113921149-63.7
2009-06-04T11:4214004147-63.3
2009-06-04T11:4214046146-62.1
2009-06-04T11:4214261141-61.1
2009-06-04T11:4314305140-60.1
2009-06-04T11:4414578134-59.7
2009-06-04T11:4414719131-60.3
2009-06-04T11:4414815129-59.1
2009-06-04T11:4515012125-59.1
2009-06-04T11:4515062124-57.7
2009-06-04T11:4615376118-55.7
2009-06-04T11:4615484116-55.5
2009-06-04T11:4715763111-57.5
2009-06-04T11:4815878109-57.1
2009-06-04T11:5016420100-60.32758
2009-06-04T23:01161183921.812.8904
2009-06-04T23:01172482820.011.0
2009-06-04T23:02193280817.49.4
2009-06-04T23:02201680017.27.2
2009-06-04T23:04240476413.85.8
2009-06-04T23:04248175714.60.6
2009-06-04T23:05268373913.6-1.4
2009-06-04T23:05274073414.0-3.0
2009-06-04T23:06305370711.8-6.2
2009-06-04T23:06314670011.2-7.829513
2009-06-04T23:0940726252.4-11.6
2009-06-04T23:125111548-7.5-14.5
2009-06-04T23:135211541-8.5-15.5
2009-06-04T23:135311534-9.3-19.3
2009-06-04T23:145500521-10.9-20.9
2009-06-04T23:145663510-11.5-20.5
2009-06-04T23:155830500-12.9-21.928016
2009-06-04T23:155952492-14.1-23.1
2009-06-04T23:166091483-15.5-22.5
2009-06-04T23:166122481-15.7-20.4
2009-06-04T23:166248473-16.1-19.0
2009-06-04T23:176604451-18.9-22.6
2009-06-04T23:186770441-18.9-26.9
2009-06-04T23:186889434-19.5-28.5
2009-06-04T23:197114421-21.1-35.1
2009-06-04T23:207490400-23.9-36.927518
2009-06-04T23:217600394-24.9-36.9
2009-06-04T23:217786384-26.5-34.5
2009-06-04T23:228111367-28.9-37.9
2009-06-04T23:238388353-29.9-38.9
2009-06-04T23:269188315-35.3-45.3
2009-06-04T23:279530300-38.3-49.329031
2009-06-04T23:3010570257-47.7-59.7
2009-06-04T23:3110750250-49.3-61.329032
2009-06-04T23:3311514222-56.5-66.5
2009-06-04T23:3612137201-60.5-69.5
2009-06-04T23:3612170200-60.929034
2009-06-04T23:3812918177-66.3
2009-06-04T23:3913233168-66.3
2009-06-04T23:4113720155-65.5
2009-06-04T23:4113930150-66.328020
2009-06-04T23:4214052147-66.7
2009-06-04T23:4314434138-65.3
2009-06-04T23:4414658133-65.7
2009-06-04T23:4414797130-64.3
2009-06-04T23:4414844129-63.1
2009-06-04T23:4514988126-63.3
2009-06-04T23:4515037125-60.9
2009-06-04T23:4515137123-59.5
2009-06-04T23:4615239121-59.9
2009-06-04T23:4615291120-59.1
2009-06-04T23:4715776111-61.1
2009-06-04T23:4815889109-59.3
2009-06-04T23:4816005107-57.5
2009-06-04T23:5016430100-59.324510
2009-06-05T11:13161183812.811.91801
2009-06-05T11:13166183313.812.2
2009-06-05T11:14195780412.411.6
2009-06-05T11:15209379113.411.5
2009-06-05T11:15232976912.87.8
2009-06-05T11:16246175714.25.2
2009-06-05T11:16265274014.02.0
2009-06-05T11:18312470010.4-1.62107
2009-06-05T11:234605583-2.1-11.1
2009-06-05T11:275810500-13.3-16.627016
2009-06-05T11:275826499-13.3-16.5
2009-06-05T11:275978489-13.7-17.3
2009-06-05T11:286181476-15.5-19.8
2009-06-05T11:296584451-19.1-21.8
2009-06-05T11:306868434-20.5-24.0
2009-06-05T11:327470400-24.3-26.827018
2009-06-05T11:327488399-24.5-27.0
2009-06-05T11:379070319-37.7-42.2
2009-06-05T11:399422303-39.5-44.0
2009-06-05T11:399500300-40.1-45.126027
2009-06-05T11:399660293-41.3-49.3
2009-06-05T11:4110062276-44.5-54.5
2009-06-05T11:4310710250-50.526532
2009-06-05T11:4411191232-54.9
2009-06-05T11:4711999204-61.3
2009-06-05T11:4712130200-61.526031
2009-06-05T11:4812161199-61.7
2009-06-05T11:4912576186-64.5
2009-06-05T11:5113156169-66.3
2009-06-05T11:5213374163-66.1
2009-06-05T11:5313880150-62.126036
2009-06-05T11:5414219142-60.1
2009-06-05T11:5614717131-62.9
2009-06-05T11:5714957126-61.7
2009-06-05T11:5715156122-62.3
2009-06-05T11:5815258120-60.9
2009-06-05T11:5815362118-60.1
2009-06-05T11:5915576114-61.5
2009-06-05T12:0015967107-62.3
2009-06-05T12:0016026106-61.9
2009-06-05T12:0116264102-59.5
2009-06-05T12:0116400100-60.528012
2009-06-05T23:01161183123.813.83504
2009-06-05T23:01174781822.213.2
2009-06-05T23:03218877719.09.0
2009-06-05T23:06301870411.25.2
2009-06-05T23:06308470011.05.01456
2009-06-05T23:0734096738.42.4
2009-06-05T23:0734706688.00.0
2009-06-05T23:0837946425.4-2.6
2009-06-05T23:104379597-0.1-4.0
2009-06-05T23:135271533-7.3-10.0
2009-06-05T23:145687505-10.5-13.6
2009-06-05T23:155748501-10.3-15.3
2009-06-05T23:155780500-10.5-15.525018
2009-06-05T23:155919491-11.3-17.3
2009-06-05T23:186832435-18.7-23.7
2009-06-05T23:207450400-22.9-31.923528
2009-06-05T23:207468399-22.9-31.9
2009-06-05T23:217560394-23.7-30.7
2009-06-05T23:217690387-24.5-34.5
2009-06-05T23:217765383-24.9-39.9
2009-06-05T23:227879377-25.9-43.9
2009-06-05T23:238350353-29.5-43.5
2009-06-05T23:248554343-30.7-39.7
2009-06-05T23:259064319-33.7-42.7
2009-06-05T23:279500300-37.5-46.525025
2009-06-05T23:3010517258-47.1-58.1
2009-06-05T23:3110730250-48.7-59.724033
2009-06-05T23:3211215232-53.1-63.1
2009-06-05T23:3511876209-59.5
2009-06-05T23:3612150200-61.524536
2009-06-05T23:3812896177-66.7
2009-06-05T23:3913246167-67.5
2009-06-05T23:4013578158-68.1
2009-06-05T23:4013655156-65.5
2009-06-05T23:4113813152-64.3
2009-06-05T23:4113900150-64.726023
2009-06-05T23:4214232142-66.3
2009-06-05T23:4314318140-65.7
2009-06-05T23:4314541135-60.9
2009-06-05T23:4414587134-60.1
2009-06-05T23:4615318119-64.5
2009-06-05T23:4615370118-61.9
2009-06-05T23:4715530115-59.7
2009-06-05T23:4715640113-59.1
2009-06-05T23:4916156104-61.3
2009-06-05T23:5016410100-60.92409
2009-06-06T11:01161183010.86.92001
2009-06-06T11:01164182715.210.2
2009-06-06T11:01168282317.010.0
2009-06-06T11:02193379918.2-2.8
2009-06-06T11:0630477008.4-8.62455
2009-06-06T11:0732966796.0-9.0
2009-06-06T11:104448588-4.1-19.1
2009-06-06T11:114692570-5.5-22.5
2009-06-06T11:124872557-6.5-18.5
2009-06-06T11:125099541-7.5-26.5
2009-06-06T11:135405520-9.1-28.1
2009-06-06T11:145710500-11.7-30.725022
2009-06-06T11:166195469-15.7-33.7
2009-06-06T11:176357459-15.5-28.5
2009-06-06T11:186861429-19.7-27.7
2009-06-06T11:197106415-21.7-28.7
2009-06-06T11:207390400-23.1-32.124033
2009-06-06T11:207500394-23.9-33.9
2009-06-06T11:248723332-33.3-44.3
2009-06-06T11:279420300-39.9-50.923040
2009-06-06T11:289957277-44.9-55.9
2009-06-06T11:3110640250-50.5-60.524041
2009-06-06T11:3211040235-53.5-63.5
2009-06-06T11:3512060200-61.923543
2009-06-06T11:3612311192-63.9
2009-06-06T11:3913270164-65.5
2009-06-06T11:4013498158-62.5
2009-06-06T11:4113777151-61.5
2009-06-06T11:4113820150-61.124538
2009-06-06T11:4113903148-60.1
2009-06-06T11:4113945147-60.1
2009-06-06T11:4214118143-57.9
2009-06-06T11:4314296139-57.5
2009-06-06T11:4314342138-56.9
2009-06-06T11:4314482135-53.5
2009-06-06T11:4414626132-52.7
2009-06-06T11:4514926126-54.1
2009-06-06T11:4715557114-59.7
2009-06-06T11:4715724111-58.5
2009-06-06T11:4815896108-58.7
2009-06-06T11:4816072105-59.9
2009-06-06T11:4916192103-59.5
2009-06-06T11:4916380100-57.330011
2009-06-06T23:31161182924.23.200
2009-06-06T23:32182280921.61.6
2009-06-06T23:35290371211.8-2.2
2009-06-06T23:36304970010.8-4.22559
2009-06-06T23:36314469210.0-6.0
2009-06-06T23:404406592-2.5-9.5
2009-06-06T23:404500585-3.3-10.3
2009-06-06T23:414540582-3.5-12.5
2009-06-06T23:445720500-13.7-20.724518
2009-06-06T23:455750498-13.9-19.9
2009-06-06T23:455996482-15.5-22.5
2009-06-06T23:486692439-20.5-25.5
2009-06-06T23:507380400-24.7-30.724522
2009-06-06T23:517807377-27.7-33.7
2009-06-06T23:548538340-33.9-39.9
2009-06-06T23:569288305-39.7-47.7
2009-06-06T23:579410300-40.3-48.324041
2009-06-07T00:0110630250-50.124539
2009-06-07T00:0511863206-60.1
2009-06-07T00:0512050200-61.124045
2009-06-07T00:0712734179-63.1
2009-06-07T00:0812909174-61.3
2009-06-07T00:0913163167-62.1
2009-06-07T00:1013467159-59.5
2009-06-07T00:1113789151-59.7
2009-06-07T00:1113830150-59.124034
2009-06-07T00:1214043145-56.7
2009-06-07T00:1214265140-56.7
2009-06-07T00:1314356138-55.9
2009-06-07T00:1414637132-56.7
2009-06-07T00:1514880127-58.7
2009-06-07T00:1515081123-56.7
2009-06-07T00:1615185121-56.5
2009-06-07T00:1715728111-58.7
2009-06-07T00:1815842109-57.3
2009-06-07T00:1816077105-59.1
2009-06-07T00:1916197103-58.7
2009-06-07T00:1916390100-59.923013
2009-06-07T11:0116118319.04.000
2009-06-07T11:01164182811.65.6
2009-06-07T11:01168182412.65.6
2009-06-07T11:02181481112.23.2
2009-06-07T11:02189780313.22.2
2009-06-07T11:03210878313.6-5.4
2009-06-07T11:03220577413.4-7.6
2009-06-07T11:03229276614.2-8.8
2009-06-07T11:0630427007.4-12.62604
2009-06-07T11:0734716643.2-13.8
2009-06-07T11:114610575-7.5-14.5
2009-06-07T11:114787562-9.1-17.1
2009-06-07T11:125038544-9.7-24.7
2009-06-07T11:145622504-13.3-34.3
2009-06-07T11:145690500-13.9-31.923523
2009-06-07T11:155751496-14.5-30.5
2009-06-07T11:166283462-18.3-44.3
2009-06-07T11:186881426-23.3-40.3
2009-06-07T11:197177409-25.5-46.5
2009-06-07T11:207340400-26.9-46.922531
2009-06-07T11:258840323-38.9-58.9
2009-06-07T11:269350300-42.7-60.722038
2009-06-07T11:3010560250-51.7-64.722045
2009-06-07T11:3311403219-58.5-69.5
2009-06-07T11:3511970200-59.1-70.122039
2009-06-07T11:3512096196-59.1-70.1
2009-06-07T11:3612160194-57.9-68.9
2009-06-07T11:3612291190-57.5-69.5
2009-06-07T11:3712630180-59.7-70.7
2009-06-07T11:3812806175-59.1-70.1
2009-06-07T11:3812914172-57.7-69.7
2009-06-07T11:3812988170-55.7-67.7
2009-06-07T11:3913063168-54.9-67.9
2009-06-07T11:4013493157-56.9-68.9
2009-06-07T11:4113790150-54.9-67.924527
2009-06-07T11:4113876148-54.5-67.5
2009-06-07T11:4213964146-50.7-65.7
2009-06-07T11:4214237140-50.7-65.7
2009-06-07T11:4314284139-49.3-65.3
2009-06-07T11:4314524134-49.1-65.1
2009-06-07T11:4414874127-50.7-66.7
2009-06-07T11:4816078105-62.1-73.1
2009-06-07T11:4916380100-63.9-74.924012
2009-06-07T23:07161183212.85.82304
2009-06-07T23:07162183113.46.4
2009-06-07T23:07170282311.82.8
2009-06-07T23:08192880112.4-0.6
2009-06-07T23:0923427629.2-1.8
2009-06-07T23:1026737328.4-3.6
2009-06-07T23:1230417005.4-4.627510
2009-06-07T23:143749641-1.3-7.3
2009-06-07T23:174546579-8.7-9.5
2009-06-07T23:195382519-14.3-16.6
2009-06-07T23:205499511-15.9-20.0
2009-06-07T23:205670500-16.9-21.129514
2009-06-07T23:215836489-18.1-22.6
2009-06-07T23:215974480-19.3-26.3
2009-06-07T23:226177467-19.9-28.9
2009-06-07T23:236466449-22.1-32.1
2009-06-07T23:267265402-29.3-38.3
2009-06-07T23:267310400-29.5-38.531016
2009-06-07T23:277655381-31.5-42.5
2009-06-07T23:287937366-33.3-43.3
2009-06-07T23:298288348-36.7-44.7
2009-06-07T23:308736326-39.3-46.3
2009-06-07T23:329300300-44.3-51.33005
2009-06-07T23:329367297-44.9-51.9
2009-06-07T23:3510291258-51.9-59.9
2009-06-07T23:3610500250-51.91806
2009-06-07T23:3610604246-52.1
2009-06-07T23:3810926234-54.9
2009-06-07T23:3911347219-55.3
2009-06-07T23:4011614210-55.7
2009-06-07T23:4111893201-54.5
2009-06-07T23:4111930200-54.524021
2009-06-07T23:4111994198-54.9
2009-06-07T23:4212258190-53.1
2009-06-07T23:4312569181-53.9
2009-06-07T23:4312676178-52.3
2009-06-07T23:4412972170-52.7
2009-06-07T23:4513126166-51.3
2009-06-07T23:4613446158-51.7
2009-06-07T23:4613611154-52.7
2009-06-07T23:4713780150-52.324522
2009-06-07T23:4814089143-51.7
2009-06-07T23:4914460135-52.7
2009-06-07T23:4914556133-51.7
2009-06-07T23:5014753129-52.1
2009-06-07T23:5115059123-54.3
2009-06-07T23:5115164121-53.7
2009-06-07T23:5315600113-56.1
2009-06-07T23:5315713111-55.5
2009-06-07T23:5315770110-55.9
2009-06-07T23:5516380100-58.124517
2009-06-08T11:0116118367.45.900
2009-06-08T11:0116508328.65.7
2009-06-08T11:0116908288.84.4
2009-06-08T11:0218108169.64.8
2009-06-08T11:0425247485.80.8
2009-06-08T11:0527457287.6-2.4
2009-06-08T11:0528367207.2-3.8
2009-06-08T11:0630807005.6-5.42408
2009-06-08T11:0836406530.2-7.8
2009-06-08T11:094179610-4.7-8.2
2009-06-08T11:124897556-10.7-11.9
2009-06-08T11:135320526-13.5-14.8
2009-06-08T11:135349524-13.1-15.0
2009-06-08T11:135407520-11.9-18.9
2009-06-08T11:135422519-11.7-20.7
2009-06-08T11:145540511-12.3-23.3
2009-06-08T11:145690501-13.1-25.1
2009-06-08T11:145720500-13.3-25.325020
2009-06-08T11:207370400-26.5-38.525018
2009-06-08T11:269380300-43.326519
2009-06-08T11:3010348259-51.7
2009-06-08T11:3010580250-53.526520
2009-06-08T11:3411769207-61.5
2009-06-08T11:3511990200-60.926523
2009-06-08T11:3512052198-60.7
2009-06-08T11:3712505184-62.7
2009-06-08T11:3712572182-60.7
2009-06-08T11:3712676179-59.1
2009-06-08T11:3812817175-59.3
2009-06-08T11:3812999170-56.7
2009-06-08T11:3913150166-56.1
2009-06-08T11:4013502157-57.3
2009-06-08T11:4113790150-55.925023
2009-06-08T11:4113876148-55.5
2009-06-08T11:4214093143-56.1
2009-06-08T11:4314319138-55.5
2009-06-08T11:4615360117-58.7
2009-06-08T11:4715747110-58.3
2009-06-08T11:4916101104-55.5
2009-06-08T11:4916360100-55.124513
2009-06-08T23:01161183515.410.43502
2009-06-08T23:02178381812.68.4
2009-06-08T23:0321267859.68.3
2009-06-08T23:0425887427.06.6
2009-06-08T23:0527677267.66.2
2009-06-08T23:0529047147.64.0
2009-06-08T23:0529507107.61.6
2009-06-08T23:0630727006.60.619511
2009-06-08T23:0733086805.0-2.0
2009-06-08T23:0837846410.4-4.4
2009-06-08T23:094088617-0.9-7.9
2009-06-08T23:104323599-2.3-9.3
2009-06-08T23:114809563-6.5-11.4
2009-06-08T23:124878558-7.3-10.5
2009-06-08T23:135203535-10.3-11.8
2009-06-08T23:145524513-12.9-16.2
2009-06-08T23:155730500-13.9-18.926020
2009-06-08T23:155929487-14.9-22.9
2009-06-08T23:166038480-15.5-27.5
2009-06-08T23:176455454-17.9-36.9
2009-06-08T23:207390400-25.5-48.525517
2009-06-08T23:248481343-34.7-61.7
2009-06-08T23:248666334-35.7-46.7
2009-06-08T23:258834326-36.5-44.5
2009-06-08T23:269290305-40.5-47.5
2009-06-08T23:279410300-41.1-48.125028
2009-06-08T23:289733286-42.7-50.7
2009-06-08T23:2910242265-46.5-54.5
2009-06-08T23:3110630250-49.726037
2009-06-08T23:3512040200-63.126037
2009-06-08T23:3512102198-63.7
2009-06-08T23:3712583183-64.5
2009-06-08T23:3712684180-62.9
2009-06-08T23:3812857175-62.7
2009-06-08T23:3812964172-60.3
2009-06-08T23:3913110168-60.9
2009-06-08T23:3913222165-58.9
2009-06-08T23:3913337162-57.5
2009-06-08T23:4013574156-58.5
2009-06-08T23:4113830150-57.725528
2009-06-08T23:4113872149-57.7
2009-06-08T23:4314354138-58.1
2009-06-08T23:4314446136-57.3
2009-06-08T23:4414730130-57.5
2009-06-08T23:4515080123-55.9
2009-06-08T23:4715728111-57.9
2009-06-08T23:4816018106-56.9
2009-06-08T23:4916199103-58.3
2009-06-08T23:4916390100-58.924519
2009-06-09T11:01161183511.29.83502
2009-06-09T11:02179281710.69.5
2009-06-09T11:0322177768.47.5
2009-06-09T11:0424647538.67.1
2009-06-09T11:0425087498.84.4
2009-06-09T11:04260874010.00.0
2009-06-09T11:05275572710.2-3.8
2009-06-09T11:0630767007.2-5.82654
2009-06-09T11:0838506360.4-9.6
2009-06-09T11:124974551-10.3-12.4
2009-06-09T11:145720500-14.7-18.023011
2009-06-09T11:156011481-16.9-20.2
2009-06-09T11:166184470-16.9-20.5
2009-06-09T11:176591445-18.9-22.8
2009-06-09T11:197195410-22.7-26.4
2009-06-09T11:207380400-24.3-27.924524
2009-06-09T11:238374348-32.9-37.0
2009-06-09T11:248578338-33.9-41.9
2009-06-09T11:248766329-34.9-42.9
2009-06-09T11:279410300-40.3-48.325039
2009-06-09T11:3010491255-50.3-58.3
2009-06-09T11:3110620250-51.525043
2009-06-09T11:3411695211-60.7
2009-06-09T11:3512030200-62.125048
2009-06-09T11:3612186195-61.3
2009-06-09T11:3612379189-62.3
2009-06-09T11:3712714179-61.9
2009-06-09T11:3913294163-59.9
2009-06-09T11:4113728152-60.5
2009-06-09T11:4113820150-59.724534
2009-06-09T11:4113862149-59.5
2009-06-09T11:4314339138-60.9
2009-06-09T11:4514906126-58.5
2009-06-09T11:4515108122-58.5
2009-06-09T11:4615211120-59.5
2009-06-09T11:4615369117-58.9
2009-06-09T11:4715698111-59.3
2009-06-09T11:4715755110-58.3
2009-06-09T11:4815812109-58.1
2009-06-09T11:4916107104-58.5
2009-06-09T11:4916360100-60.126016
2009-06-09T23:02161183319.85.82852
2009-06-09T23:02168382619.21.2
2009-06-09T23:03201979416.60.6
2009-06-09T23:0730807007.2-1.819511
2009-06-09T23:0732576855.2-1.8
2009-06-09T23:134828562-7.9-9.5
2009-06-09T23:145309528-10.9-12.0
2009-06-09T23:155574510-11.5-12.9
2009-06-09T23:165740500-13.1-18.125011
2009-06-09T23:165770498-13.3-19.3
2009-06-09T23:166001483-15.1-22.1
2009-06-09T23:186384459-16.7-24.7
2009-06-09T23:217400400-24.7-31.727017
2009-06-09T23:227770380-28.1-34.1
2009-06-09T23:237999368-29.9-34.9
2009-06-09T23:248354350-31.7-42.7
2009-06-09T23:268787329-35.7-48.7
2009-06-09T23:289430300-41.1-53.125527
2009-06-09T23:299870281-44.9-55.9
2009-06-09T23:3210640250-50.3-60.324545
2009-06-09T23:3210718247-50.9-60.9
2009-06-09T23:3311095233-53.1-63.1
2009-06-09T23:3411520218-55.7
2009-06-09T23:3511817208-56.9
2009-06-09T23:3612070200-58.924537
2009-06-09T23:3712422189-61.3
2009-06-09T23:4113412161-62.1
2009-06-09T23:4113646155-62.3
2009-06-09T23:4213808151-60.9
2009-06-09T23:4213850150-61.124034
2009-06-09T23:4313976147-61.9
2009-06-09T23:4314233141-60.7
2009-06-09T23:4514595133-61.5
2009-06-09T23:4614882127-58.9
2009-06-09T23:4615082123-58.7
2009-06-09T23:4715237120-56.9
2009-06-09T23:4815560114-58.1
2009-06-09T23:4815671112-56.9
2009-06-09T23:4915842109-57.7
2009-06-09T23:5016198103-57.7
2009-06-09T23:5016390100-58.528016
2009-06-10T11:01161183610.67.500
2009-06-10T11:02177182010.87.8
2009-06-10T11:02199679810.07.9
2009-06-10T11:0425387475.45.4
2009-06-10T11:0528707173.02.7
2009-06-10T11:0630787005.2-1.82406
2009-06-10T11:0631136975.2-2.8
2009-06-10T11:083750644-0.1-6.1
2009-06-10T11:114600578-7.5-10.1
2009-06-10T11:114735568-8.3-11.0
2009-06-10T11:114803563-7.7-12.7
2009-06-10T11:124900556-7.9-14.9
2009-06-10T11:135168537-10.3-16.3
2009-06-10T11:135283529-10.9-17.9
2009-06-10T11:145720500-13.9-20.925515
2009-06-10T11:155811494-14.7-21.7
2009-06-10T11:155888489-15.1-26.1
2009-06-10T11:155965484-15.3-36.3
2009-06-10T11:166201469-17.1-30.1
2009-06-10T11:176459453-19.5-28.5
2009-06-10T11:176641442-21.1-26.1
2009-06-10T11:186928425-23.5-27.5
2009-06-10T11:197136413-24.5-30.5
2009-06-10T11:207380400-26.3-31.323521
2009-06-10T11:217618387-27.1-34.1
2009-06-10T11:227920371-28.9-36.9
2009-06-10T11:258784328-37.1-45.1
2009-06-10T11:279400300-42.1-50.124041
2009-06-10T11:3010600250-53.323543
2009-06-10T11:3110808242-55.3
2009-06-10T11:3211022234-55.7
2009-06-10T11:3411762208-60.1
2009-06-10T11:3511883204-60.7
2009-06-10T11:3512010200-60.724532
2009-06-10T11:3512072198-60.1
2009-06-10T11:3612263192-60.7
2009-06-10T11:3612361189-59.5
2009-06-10T11:3712665180-59.5
2009-06-10T11:3812841175-58.7
2009-06-10T11:3913059169-59.5
2009-06-10T11:4013559156-59.3
2009-06-10T11:4113721152-60.5
2009-06-10T11:4113810150-59.724524
2009-06-10T11:4113852149-59.3
2009-06-10T11:4214022145-59.7
2009-06-10T11:4214109143-58.5
2009-06-10T11:4314469135-59.9
2009-06-10T11:4414609132-58.5
2009-06-10T11:4514900126-58.9
2009-06-10T11:4515000124-57.5
2009-06-10T11:4615206120-58.7
2009-06-10T11:4615311118-57.9
2009-06-10T11:4715583113-58.7
2009-06-10T11:4715696111-56.1
2009-06-10T11:4815869108-57.3
2009-06-10T11:4916107104-57.5
2009-06-10T11:4916350100-58.723018
2009-06-10T23:02161183316.29.23606
2009-06-10T23:02167282715.08.0
2009-06-10T23:03184681012.67.6
2009-06-10T23:04224677211.25.2
2009-06-10T23:0525077488.84.1
2009-06-10T23:0626967316.84.4
2009-06-10T23:0628097216.64.6
2009-06-10T23:0628437186.42.9
2009-06-10T23:0629007136.22.6
2009-06-10T23:0730577005.01.72354
2009-06-10T23:093703646-0.5-1.3
2009-06-10T23:114223605-2.5-5.4
2009-06-10T23:124595577-5.7-8.4
2009-06-10T23:145311526-10.5-13.2
2009-06-10T23:145384521-10.7-13.7
2009-06-10T23:155428518-10.9-12.4
2009-06-10T23:155502513-11.1-12.2
2009-06-10T23:155710500-12.3-15.025514
2009-06-10T23:155726499-12.3-15.1
2009-06-10T23:165926486-12.9-15.8
2009-06-10T23:176308462-16.9-27.9
2009-06-10T23:186605444-18.3-30.3
2009-06-10T23:217380400-23.9-35.926513
2009-06-10T23:227601388-25.5-38.5
2009-06-10T23:248196357-31.7-42.7
2009-06-10T23:248396347-32.3-43.3
2009-06-10T23:268874324-36.9-48.9
2009-06-10T23:289410300-41.5-51.524511
2009-06-10T23:289546294-42.9-52.9
2009-06-10T23:3010089271-46.5-56.5
2009-06-10T23:3010287263-46.9-56.9
2009-06-10T23:3110542253-49.1-59.1
2009-06-10T23:3210620250-49.72555
2009-06-10T23:3310994236-51.9
2009-06-10T23:3411357223-55.1
2009-06-10T23:3612050200-59.527012
2009-06-10T23:3712239194-60.9
2009-06-10T23:3712401189-60.3
2009-06-10T23:3912983172-62.9
2009-06-10T23:4013091169-62.1
2009-06-10T23:4013351162-62.9
2009-06-10T23:4113389161-61.9
2009-06-10T23:4113544157-61.3
2009-06-10T23:4213746152-57.7
2009-06-10T23:4213830150-58.124019
2009-06-10T23:4314086144-59.3
2009-06-10T23:4414352138-59.7
2009-06-10T23:4514584133-56.9
2009-06-10T23:4514728130-56.1
2009-06-10T23:4614926126-56.7
2009-06-10T23:4615079123-55.7
2009-06-10T23:4715236120-55.9
2009-06-10T23:4815734111-53.1
2009-06-10T23:4916089105-56.1
2009-06-10T23:5016400100-57.51858
2009-06-11T11:01161183611.09.400
2009-06-11T11:01164183311.09.5
2009-06-11T11:0220687918.27.5
2009-06-11T11:0425157497.04.6
2009-06-11T11:0528487195.21.8
2009-06-11T11:0630547013.82.4
2009-06-11T11:0630807003.82.32105
2009-06-11T11:0632086892.81.0
2009-06-11T11:0734456692.0-1.7
2009-06-11T11:114693571-8.7-9.1
2009-06-11T11:145426519-11.9-14.6
2009-06-11T11:145720500-14.1-16.72509
2009-06-11T11:176426455-19.7-22.3
2009-06-11T11:176557447-20.7-22.4
2009-06-11T11:186757435-21.3-23.5
2009-06-11T11:186842430-20.9-23.0
2009-06-11T11:197210409-22.7-25.7
2009-06-11T11:207380400-24.1-28.125518
2009-06-11T11:217713382-26.7-31.7
2009-06-11T11:238196357-30.7-36.7
2009-06-11T11:238457344-32.9-43.9
2009-06-11T11:258810327-35.7-43.7
2009-06-11T11:258981319-37.1-46.1
2009-06-11T11:279410300-41.1-48.125026
2009-06-11T11:289709287-43.7-51.7
2009-06-11T11:289994275-45.3-52.3
2009-06-11T11:3110620250-50.925532
2009-06-11T11:3110804243-52.5
2009-06-11T11:3511852206-59.3
2009-06-11T11:3512040200-60.325534
2009-06-11T11:3512071199-60.3
2009-06-11T11:3712524185-60.5
2009-06-11T11:3712728179-61.5
2009-06-11T11:4013426160-59.5
2009-06-11T11:4113704153-60.1
2009-06-11T11:4113830150-59.725526
2009-06-11T11:4113956147-59.5
2009-06-11T11:4414577133-61.9
2009-06-11T11:4414815128-59.5
2009-06-11T11:4514963125-58.9
2009-06-11T11:4615430116-59.5
2009-06-11T11:4715594113-58.3
2009-06-11T11:4815878108-58.5
2009-06-11T11:4815936107-57.7
2009-06-11T11:4916115104-58.1
2009-06-11T11:4916237102-56.9
2009-06-11T11:4916370100-57.723010
2009-06-11T23:01161183319.48.41604
2009-06-11T23:01174582017.26.2
2009-06-11T23:02188080715.84.8
2009-06-11T23:0630687005.6-1.42657
2009-06-11T23:0733156793.4-2.6
2009-06-11T23:0836666501.6-4.4
2009-06-11T23:094094616-1.7-6.2
2009-06-11T23:114787564-6.7-11.7
2009-06-11T23:124940553-7.9-10.7
2009-06-11T23:135340525-11.1-13.4
2009-06-11T23:155730500-11.5-19.525020
2009-06-11T23:155745499-11.5-19.5
2009-06-11T23:207281406-24.9-29.4
2009-06-11T23:207390400-25.5-29.925018
2009-06-11T23:207499394-26.1-30.7
2009-06-11T23:217665385-26.9-33.9
2009-06-11T23:238203357-31.3-40.3
2009-06-11T23:238423346-32.5-47.5
2009-06-11T23:279410300-41.1-57.126020
2009-06-11T23:2910237265-48.5-61.5
2009-06-11T23:3110620250-51.5-64.526524
2009-06-11T23:3411823207-58.3-69.3
2009-06-11T23:3511946203-57.5-68.5
2009-06-11T23:3512040200-57.9-68.925534
2009-06-11T23:3712462187-58.7-69.7
2009-06-11T23:3812772178-57.7-68.7
2009-06-11T23:3812987172-58.9-69.9
2009-06-11T23:3913097169-57.9-68.9
2009-06-11T23:4013362162-58.7-69.7
2009-06-11T23:4013559157-58.3-69.3
2009-06-11T23:4113850150-59.3-70.325036
2009-06-11T23:4214019146-59.7-70.7
2009-06-11T23:4314281140-58.3-69.3
2009-06-11T23:4414744130-59.7-70.7
2009-06-11T23:4414841128-58.1-69.1
2009-06-11T23:4515040124-59.3-70.3
2009-06-11T23:4715567114-58.1-70.1
2009-06-11T23:4815906108-59.1-70.1
2009-06-11T23:4916203103-57.9-69.9
2009-06-11T23:4916400100-59.1-71.125024
2009-06-12T11:0116118368.27.61702
2009-06-12T11:0116808299.48.7
2009-06-12T11:0117608219.89.1
2009-06-12T11:0321937799.25.1
2009-06-12T11:0322997698.85.4
2009-06-12T11:0323317669.05.7
2009-06-12T11:0423857619.63.6
2009-06-12T11:0426277399.00.0
2009-06-12T11:0630867005.2-2.82755
2009-06-12T11:114513585-7.1-9.3
2009-06-12T11:124823562-9.1-13.2
2009-06-12T11:124934554-9.1-15.1
2009-06-12T11:125076544-8.5-22.5
2009-06-12T11:135189536-8.5-27.5
2009-06-12T11:145497515-9.9-29.9
2009-06-12T11:155730500-11.9-30.927513
2009-06-12T11:176474453-18.3-34.3
2009-06-12T11:186724438-20.1-36.1
2009-06-12T11:186809433-20.1-37.1
2009-06-12T11:207400400-24.9-42.926022
2009-06-12T11:207528393-25.7-43.7
2009-06-12T11:227923372-27.9-45.9
2009-06-12T11:279430300-40.7-55.726534
2009-06-12T11:3110640250-50.9-62.926536
2009-06-12T11:3211011236-54.5-65.5
2009-06-12T11:3511961203-59.9-69.9
2009-06-12T11:3512050200-60.1-70.125538
2009-06-12T11:3612207195-60.3-70.3
2009-06-12T11:3612271193-58.5-68.5
2009-06-12T11:3612369190-57.7-67.7
2009-06-12T11:3812815177-57.3-67.3
2009-06-12T11:3812887175-56.7-67.7
2009-06-12T11:3813034171-54.1-65.1
2009-06-12T11:3913147168-53.7-64.7
2009-06-12T11:4113662155-54.5-65.5
2009-06-12T11:4113880150-56.3-67.325034
2009-06-12T11:4214008147-57.3-68.3
2009-06-12T11:4414636133-59.3-69.3
2009-06-12T11:4414826129-60.7-70.7
2009-06-12T11:4514972126-60.3-70.3
2009-06-12T11:4816043106-61.7-71.7
2009-06-12T11:4916161104-60.5-70.5
2009-06-12T11:4916343101-60.5-70.5
2009-06-12T11:5016410100-59.7-69.725018
2009-06-12T23:54161183817.811.800
2009-06-12T23:54169283017.411.4
2009-06-12T23:56220478112.89.0
2009-06-12T23:5726417419.65.5
2009-06-12T23:5828447238.85.4
2009-06-12T23:5829017188.64.0
2009-06-12T23:5931177006.03.1956
2009-06-12T23:5931526975.63.0
2009-06-13T00:0033536804.82.5
2009-06-13T00:0035226663.8-0.1
2009-06-13T00:0136566553.01.9
2009-06-13T00:0136816533.00.1
2009-06-13T00:0137556472.6-1.3
2009-06-13T00:034383598-3.1-5.0
2009-06-13T00:044570584-3.7-7.4
2009-06-13T00:054996553-7.7-10.3
2009-06-13T00:065209538-8.5-12.2
2009-06-13T00:075664507-12.5-16.5
2009-06-13T00:085780500-12.9-16.325514
2009-06-13T00:085810498-13.1-16.5
2009-06-13T00:085933490-14.1-18.8
2009-06-13T00:106376462-17.3-21.0
2009-06-13T00:116874432-20.3-31.3
2009-06-13T00:116926429-20.5-27.5
2009-06-13T00:127151416-22.5-27.5
2009-06-13T00:137450400-23.7-28.727016
2009-06-13T00:147579393-23.7-29.7
2009-06-13T00:158054368-27.7-34.7
2009-06-13T00:178658338-32.1-38.1
2009-06-13T00:199106317-35.7-42.7
2009-06-13T00:209490300-38.3-45.326035
2009-06-13T00:2310608254-47.9-54.9
2009-06-13T00:2410710250-48.726041
2009-06-13T00:2811860209-57.9
2009-06-13T00:2912140200-59.526050
2009-06-13T00:3112865178-60.5
2009-06-13T00:3213113171-61.9
2009-06-13T00:3213334165-61.3
2009-06-13T00:3313410163-59.5
2009-06-13T00:3313448162-59.5
2009-06-13T00:3313526160-58.5
2009-06-13T00:3313645157-58.5
2009-06-13T00:3413940150-56.925534
2009-06-13T00:3514153145-58.1
2009-06-13T00:3614555136-58.5
2009-06-13T00:3814884129-60.9
2009-06-13T00:3915330120-63.1
2009-06-13T00:4115974108-64.3
2009-06-13T00:4116088106-63.1
2009-06-13T00:4316450100-63.725026
2009-06-13T11:01161184011.210.400
2009-06-13T11:01170183112.011.5
2009-06-13T11:03236676710.48.0
2009-06-13T11:0527407338.06.7
2009-06-13T11:0631277006.23.62108
2009-06-13T11:0733876784.61.7
2009-06-13T11:0735206674.41.2
2009-06-13T11:0836556564.0-1.0
2009-06-13T11:094186614-0.3-5.3
2009-06-13T11:104330603-1.3-8.3
2009-06-13T11:135381527-10.5-12.7
2009-06-13T11:145557515-11.3-12.7
2009-06-13T11:155800500-12.5-14.325516
2009-06-13T11:155969489-13.1-15.6
2009-06-13T11:186864434-19.5-22.8
2009-06-13T11:197195415-20.9-25.8
2009-06-13T11:207392404-22.1-30.1
2009-06-13T11:207470400-22.7-31.725518
2009-06-13T11:217673389-24.3-37.3
2009-06-13T11:227957374-26.7-38.7
2009-06-13T11:228132365-27.5-47.5
2009-06-13T11:238391352-28.9-47.9
2009-06-13T11:248679338-31.5-48.5
2009-06-13T11:258784333-32.3-42.3
2009-06-13T11:258912327-33.3-41.3
2009-06-13T11:279510300-38.7-45.724527
2009-06-13T11:289883284-42.1-49.1
2009-06-13T11:3010549257-47.5-56.5
2009-06-13T11:3110740250-48.725036
2009-06-13T11:3411568220-53.9
2009-06-13T11:3411745214-54.1
2009-06-13T11:3512050204-55.9
2009-06-13T11:3612180200-56.925562
2009-06-13T11:3913084173-62.5
2009-06-13T11:4113960150-65.125547
2009-06-13T11:4214042148-65.3
2009-06-13T11:4214209144-62.9
2009-06-13T11:4314382140-61.9
2009-06-13T11:4515079125-63.3
2009-06-13T11:4615381119-62.5
2009-06-13T11:4815807111-64.9
2009-06-13T11:4815918109-63.7
2009-06-13T11:4816088106-64.5
2009-06-13T11:4916204104-63.1
2009-06-13T11:4916323102-63.7
2009-06-13T11:5016450100-63.125020
2009-06-13T23:01161183521.28.2505
2009-06-13T23:02179881719.05.0
2009-06-13T23:02196680118.05.0
2009-06-13T23:03226777315.87.8
2009-06-13T23:0631077008.26.51607
2009-06-13T23:0632136917.26.3
2009-06-13T23:0733806776.46.2
2009-06-13T23:0734896685.83.3
2009-06-13T23:0836986514.21.8
2009-06-13T23:0838236413.8-0.1
2009-06-13T23:104500589-1.9-6.4
2009-06-13T23:125110545-6.7-9.3
2009-06-13T23:145459521-9.5-12.5
2009-06-13T23:145714504-10.9-15.9
2009-06-13T23:155790500-11.3-17.324015
2009-06-13T23:166180475-13.9-18.9
2009-06-13T23:176636447-18.1-22.6
2009-06-13T23:186787438-19.3-22.5
2009-06-13T23:207274410-21.7-24.5
2009-06-13T23:207460400-23.1-26.222020
2009-06-13T23:238280357-29.1-33.6
2009-06-13T23:279500300-39.1-46.121522
2009-06-13T23:3110720250-50.1-57.123027
2009-06-13T23:3211176233-54.1
2009-06-13T23:3311342227-54.3
2009-06-13T23:3411658216-56.5
2009-06-13T23:3411717214-55.7
2009-06-13T23:3411807211-55.9
2009-06-13T23:3512082202-57.7
2009-06-13T23:3612150200-57.3-64.324047
2009-06-13T23:3612408192-56.1
2009-06-13T23:3712677184-56.9
2009-06-13T23:4113754155-59.3
2009-06-13T23:4113960150-60.1-69.124036
2009-06-13T23:4214002149-60.3
2009-06-13T23:4214172145-56.9
2009-06-13T23:4414667134-59.9
2009-06-13T23:4414761132-59.5
2009-06-13T23:4414857130-57.7
2009-06-13T23:4514955128-57.7
2009-06-13T23:4815949109-65.1
2009-06-13T23:4816062107-64.5
2009-06-13T23:4916177105-62.9
2009-06-13T23:5016480100-62.9-72.927022
2009-06-14T11:03161183811.811.33402
2009-06-14T11:0419038099.89.8
2009-06-14T11:04196580310.410.3
2009-06-14T11:04202779710.88.1
2009-06-14T11:05212178812.07.8
2009-06-14T11:05219578111.67.2
2009-06-14T11:05233576811.83.8
2009-06-14T11:06242276014.01.0
2009-06-14T11:06246675614.20.2
2009-06-14T11:0831137008.6-3.43005
2009-06-14T11:1038796371.6-7.4
2009-06-14T11:134730572-6.5-10.3
2009-06-14T11:144895560-7.1-14.1
2009-06-14T11:145035550-6.9-21.9
2009-06-14T11:155121544-4.9-34.9
2009-06-14T11:155193539-4.9-37.9
2009-06-14T11:175730503-9.7-29.7
2009-06-14T11:175790500-9.9-30.925518
2009-06-14T11:186039484-11.9-35.9
2009-06-14T11:196573451-16.3-30.3
2009-06-14T11:217032424-20.5-34.5
2009-06-14T11:217226413-21.9-37.9
2009-06-14T11:227460400-23.3-32.324525
2009-06-14T11:227478399-23.3-32.3
2009-06-14T11:258378352-31.1-38.1
2009-06-14T11:278937325-35.3-44.3
2009-06-14T11:289154315-36.1-48.1
2009-06-14T11:299500300-38.9-50.924039
2009-06-14T11:3310720250-49.3-60.323542
2009-06-14T11:3411121235-52.9-62.9
2009-06-14T11:3511343227-54.5-64.5
2009-06-14T11:3611629217-56.7
2009-06-14T11:3812150200-59.124049
2009-06-14T11:3912738182-60.5
2009-06-14T11:4012911177-61.3
2009-06-14T11:4013017174-61.1
2009-06-14T11:4113236168-58.7
2009-06-14T11:4313660157-59.1
2009-06-14T11:4313740155-57.7
2009-06-14T11:4313940150-57.524033
2009-06-14T11:4413982149-57.1
2009-06-14T11:4614834130-61.3
2009-06-14T11:4715028126-60.7
2009-06-14T11:4915591115-63.7
2009-06-14T11:4915698113-63.7
2009-06-14T11:5015808111-61.5
2009-06-14T11:5016035107-60.9
2009-06-14T11:5116211104-61.5
2009-06-14T11:5216470100-60.126011
2009-06-14T23:35161183515.811.41355
2009-06-14T23:35173382315.64.6
2009-06-14T23:36179581716.04.0
2009-06-14T23:38257974411.4-0.6
2009-06-14T23:39273773011.4-1.6
2009-06-14T23:4030967008.6-2.42308
2009-06-14T23:4135276644.6-2.4
2009-06-14T23:4340546221.4-7.6
2009-06-14T23:454515587-2.9-8.9
2009-06-14T23:464815565-5.7-9.1
2009-06-14T23:475210537-8.5-11.1
2009-06-14T23:475268533-8.3-12.8
2009-06-14T23:485458520-9.9-14.2
2009-06-14T23:495770500-11.5-17.523523
2009-06-14T23:495908491-12.7-19.7
2009-06-14T23:496001485-13.3-19.3
2009-06-14T23:506095479-14.1-23.1
2009-06-14T23:516449457-17.1-25.1
2009-06-14T23:516531452-17.5-23.5
2009-06-14T23:516614447-18.3-26.3
2009-06-14T23:526782437-19.5-27.5
2009-06-14T23:536953427-20.9-30.9
2009-06-14T23:537076420-21.5-33.5
2009-06-14T23:537216412-22.7-30.7
2009-06-14T23:547440400-24.1-31.123023
2009-06-14T23:547458399-24.3-31.3
2009-06-14T23:557679387-25.5-37.5
2009-06-14T23:557716385-25.5-42.5
2009-06-14T23:557848378-26.7-51.7
2009-06-14T23:578197360-29.9-57.9
2009-06-14T23:578458347-30.7-62.7
2009-06-15T00:019480300-39.5-66.524529
2009-06-15T00:0410312265-47.3-65.3
2009-06-15T00:0510690250-50.3-66.324034
2009-06-15T00:0510874243-51.5-66.5
2009-06-15T00:0610981239-51.5-66.5
2009-06-15T00:0711313227-53.9-67.9
2009-06-15T00:0911901207-55.7-68.7
2009-06-15T00:0912026203-56.7-69.7
2009-06-15T00:0912130200-56.7-69.722029
2009-06-15T00:1012355193-56.9-69.9
2009-06-15T00:1212900177-57.9-70.9
2009-06-15T00:1313190169-59.1-71.1
2009-06-15T00:1313340165-57.9-70.9
2009-06-15T00:1413494161-58.1-71.1
2009-06-15T00:1413612158-57.5-70.5
2009-06-15T00:1513940150-58.5-71.522024
2009-06-15T00:1714414139-61.3-73.3
2009-06-15T00:1814595135-60.5-72.5
2009-06-15T00:1814781131-61.7-73.7
2009-06-15T00:2015373119-62.3-74.3
2009-06-15T00:2115584115-60.9-72.9
2009-06-15T00:2215803111-61.7-73.7
2009-06-15T00:2215916109-60.3-72.3
2009-06-15T00:2216031107-60.5-72.5
2009-06-15T00:2416450100-63.3-74.324514
2009-06-15T11:04161183611.09.900
2009-06-15T11:04166183112.010.7
2009-06-15T11:05179281811.49.6
2009-06-15T11:05203079513.28.2
2009-06-15T11:06218978012.07.0
2009-06-15T11:07238376210.67.5
2009-06-15T11:07252674911.06.0
2009-06-15T11:0828767189.80.8
2009-06-15T11:0930037078.82.8
2009-06-15T11:0930917008.40.42258
2009-06-15T11:0932096908.2-1.8
2009-06-15T11:144591581-4.1-11.1
2009-06-15T11:154935556-7.1-15.1
2009-06-15T11:185760500-14.7-19.124014
2009-06-15T11:196177473-17.3-24.3
2009-06-15T11:206353462-18.1-29.1
2009-06-15T11:206516452-19.1-30.1
2009-06-15T11:216800435-20.7-32.7
2009-06-15T11:226989424-21.1-42.1
2009-06-15T11:237420400-24.1-47.123019
2009-06-15T11:247622389-25.7-45.7
2009-06-15T11:257943372-28.5-38.5
2009-06-15T11:258157361-30.1-39.1
2009-06-15T11:268256356-30.7-35.7
2009-06-15T11:268356351-31.5-35.4
2009-06-15T11:309450300-39.9-43.623529
2009-06-15T11:309610293-41.3-44.9
2009-06-15T11:3210110272-44.7-49.7
2009-06-15T11:3410670250-49.724536
2009-06-15T11:3611264228-54.7
2009-06-15T11:3812090200-60.724036
2009-06-15T11:3912279194-61.7
2009-06-15T11:3912343192-60.1
2009-06-15T11:4012710181-59.7
2009-06-15T11:4112957174-57.7
2009-06-15T11:4213330164-57.5
2009-06-15T11:4313526159-56.7
2009-06-15T11:4413900150-56.924527
2009-06-15T11:4614522136-54.9
2009-06-15T11:4714809130-55.5
2009-06-15T11:4815007126-57.5
2009-06-15T11:4815108124-57.3
2009-06-15T11:5115801111-60.3
2009-06-15T11:5115857110-60.3
2009-06-15T11:5316450100-61.125518
2009-06-15T23:06161183421.45.41602
2009-06-15T23:07178781718.43.4
2009-06-15T23:09252974811.60.6
2009-06-15T23:1029037159.2-2.8
2009-06-15T23:1130907007.6-3.42704
2009-06-15T23:1337666441.4-5.6
2009-06-15T23:154290603-1.9-8.9
2009-06-15T23:164788566-6.1-13.1
2009-06-15T23:185224535-9.7-14.0
2009-06-15T23:195560512-12.5-17.2
2009-06-15T23:195710502-13.3-19.3
2009-06-15T23:205750500-13.3-21.324521
2009-06-15T23:205780498-13.5-22.5
2009-06-15T23:205841494-13.7-20.7
2009-06-15T23:216043481-13.9-20.9
2009-06-15T23:216250468-15.5-22.5
2009-06-15T23:226445456-15.9-24.9
2009-06-15T23:257420400-23.7-33.724520
2009-06-15T23:298683335-34.9-43.9
2009-06-15T23:308957322-36.7-51.7
2009-06-15T23:319241309-37.1-57.1
2009-06-15T23:329450300-38.1-61.124534
2009-06-15T23:329542296-38.7-61.7
2009-06-15T23:3410238267-45.3-59.3
2009-06-15T23:3610680250-48.5-62.525036
2009-06-15T23:3911689214-53.3-66.3
2009-06-15T23:4011996204-54.3-66.3
2009-06-15T23:4012120200-53.5-66.524029
2009-06-15T23:4112217197-53.1-66.1
2009-06-15T23:4312974175-55.5-68.5
2009-06-15T23:4413348165-55.5-68.5
2009-06-15T23:4613960150-57.7-70.724522
2009-06-15T23:4814349141-58.5-71.5
2009-06-15T23:5215792112-58.7-71.7
2009-06-15T23:5316019108-60.1-73.1
2009-06-15T23:5416195105-59.5-72.5
2009-06-15T23:5516500100-61.1-73.120510
2009-06-16T11:02161183610.87.52951
2009-06-16T11:02170182712.64.6
2009-06-16T11:02176282113.45.4
2009-06-16T11:03184481313.84.8
2009-06-16T11:03199079916.43.4
2009-06-16T11:03203279516.62.6
2009-06-16T11:0731037008.0-5.02605
2009-06-16T11:0732336897.2-6.8
2009-06-16T11:114227609-1.9-9.9
2009-06-16T11:124531586-3.3-15.3
2009-06-16T11:135027550-7.5-20.5
2009-06-16T11:145372526-9.1-29.1
2009-06-16T11:165770500-12.5-24.526015
2009-06-16T11:176048482-14.5-22.5
2009-06-16T11:206951427-21.1-34.1
2009-06-16T11:217303407-22.3-46.3
2009-06-16T11:217339405-22.5-41.5
2009-06-16T11:217376403-22.9-35.9
2009-06-16T11:217440400-23.3-33.325022
2009-06-16T11:217477398-23.7-32.7
2009-06-16T11:227831379-26.9-33.9
2009-06-16T11:237946373-26.9-30.8
2009-06-16T11:248402350-29.1-32.3
2009-06-16T11:289480300-38.7-43.625533
2009-06-16T11:289618294-40.1-45.1
2009-06-16T11:3210710250-48.5-55.525536
2009-06-16T11:3612105201-59.9
2009-06-16T11:3712140200-59.9-65.926544
2009-06-16T11:3812626185-60.1
2009-06-16T11:3812727182-59.7
2009-06-16T11:3912902177-56.7
2009-06-16T11:4013231168-57.7
2009-06-16T11:4113422163-56.7
2009-06-16T11:4213821153-57.9
2009-06-16T11:4213950150-57.7-64.724526
2009-06-16T11:4414385140-56.9
2009-06-16T11:4815611115-62.7
2009-06-16T11:4815774112-61.7
2009-06-16T11:5016113106-63.3
2009-06-16T11:5016289103-62.9
2009-06-16T11:5116470100-63.7-71.725014
2009-06-16T23:01161183426.44.41604
2009-06-16T23:01167482825.83.8
2009-06-16T23:03231276918.81.8
2009-06-16T23:06311370011.01.01754
2009-06-16T23:0735236667.2-0.8
2009-06-16T23:114718574-3.1-6.7
2009-06-16T23:124983555-4.3-7.6
2009-06-16T23:155762502-10.3-13.5
2009-06-16T23:155810500-10.5-13.625516
2009-06-16T23:155980489-12.1-13.8
2009-06-16T23:166153478-13.3-15.7
2009-06-16T23:186915432-17.3-21.7
2009-06-16T23:197179417-17.7-23.7
2009-06-16T23:207490400-20.1-25.125025
2009-06-16T23:217583395-20.5-25.2
2009-06-16T23:279390307-34.7-42.7
2009-06-16T23:279560300-36.3-44.324527
2009-06-16T23:289793290-38.5-46.5
2009-06-16T23:3110790250-47.324535
2009-06-16T23:3210923245-48.5
2009-06-16T23:3612230200-58.325041
2009-06-16T23:3712551190-59.9
2009-06-16T23:3712650187-59.9
2009-06-16T23:3712717185-58.9
2009-06-16T23:3913244170-60.7
2009-06-16T23:4013466164-61.5
2009-06-16T23:4013580161-61.1
2009-06-16T23:4113697158-59.1
2009-06-16T23:4214030150-59.724030
2009-06-16T23:4314371142-60.1
2009-06-16T23:4414684135-61.7
2009-06-16T23:4514917130-61.3
2009-06-16T23:4615462119-62.5
2009-06-16T23:4715726114-61.9
2009-06-16T23:4916349103-63.7
2009-06-16T23:5016540100-63.124514
2009-06-17T11:07161183712.08.72053
2009-06-17T11:07166183213.85.8
2009-06-17T11:07170182815.06.0
2009-06-17T11:08180381816.26.2
2009-06-17T11:09228077314.63.6
2009-06-17T11:10262274212.22.2
2009-06-17T11:1129187169.63.6
2009-06-17T11:1230117088.86.4
2009-06-17T11:1230467058.66.6
2009-06-17T11:1231127009.24.22255
2009-06-17T11:1232196919.40.4
2009-06-17T11:1435966607.2-3.8
2009-06-17T11:174801568-3.7-8.0
2009-06-17T11:185096547-5.9-10.8
2009-06-17T11:195269535-7.5-11.2
2009-06-17T11:215729504-10.9-15.9
2009-06-17T11:215800500-11.5-16.523520
2009-06-17T11:215939491-12.1-18.1
2009-06-17T11:216001487-11.9-16.7
2009-06-17T11:226080482-11.5-17.5
2009-06-17T11:226256471-11.9-19.9
2009-06-17T11:236370464-12.7-18.7
2009-06-17T11:236485457-13.5-21.5
2009-06-17T11:246669446-15.3-20.3
2009-06-17T11:267351407-20.5-25.0
2009-06-17T11:267490400-21.1-27.123027
2009-06-17T11:277770385-23.1-29.1
2009-06-17T11:287923377-23.5-34.5
2009-06-17T11:308521347-28.5-40.5
2009-06-17T11:329181316-34.7-43.7
2009-06-17T11:339550300-37.7-46.723030
2009-06-17T11:349972282-41.7-50.7
2009-06-17T11:3510215272-43.1-52.1
2009-06-17T11:3710770250-48.522031
2009-06-17T11:4011828212-58.1
2009-06-17T11:4111978207-58.1
2009-06-17T11:4212200200-59.323036
2009-06-17T11:4312584188-62.1
2009-06-17T11:4412784182-61.9
2009-06-17T11:4513350166-62.9
2009-06-17T11:4613500162-61.3
2009-06-17T11:4613577160-59.9
2009-06-17T11:4713735156-60.1
2009-06-17T11:4813980150-61.723544
2009-06-17T11:4814063148-61.9
2009-06-17T11:4814233144-60.3
2009-06-17T11:4914408140-60.9
2009-06-17T11:4914498138-59.3
2009-06-17T11:5014823131-58.9
2009-06-17T11:5114968128-57.5
2009-06-17T11:5115168124-57.3
2009-06-17T11:5516200105-63.9
2009-06-17T11:5616510100-64.326014
2009-06-17T23:03161183325.010.0504
2009-06-17T23:03164283024.610.6
2009-06-17T23:06263573915.08.0
2009-06-17T23:07294771213.07.0
2009-06-17T23:08310070012.63.61258
2009-06-17T23:08323268912.00.0
2009-06-17T23:1242306103.2-6.8
2009-06-17T23:155343530-7.1-9.9
2009-06-17T23:175810500-10.9-14.221515
2009-06-17T23:175826499-11.1-14.3
2009-06-17T23:175948491-12.5-14.3
2009-06-17T23:186231473-14.5-15.6
2009-06-17T23:206656447-17.1-19.1
2009-06-17T23:206740442-18.5-20.6
2009-06-17T23:206876434-20.1-26.1
2009-06-17T23:217117420-20.7-25.4
2009-06-17T23:227480400-23.1-28.123531
2009-06-17T23:237758385-24.7-29.7
2009-06-17T23:237834381-24.9-31.9
2009-06-17T23:268587343-30.3-42.3
2009-06-17T23:278989324-33.3-41.3
2009-06-17T23:299530300-37.9-46.922045
2009-06-17T23:3310750250-48.721547
2009-06-17T23:3411207233-52.7
2009-06-17T23:3511318229-52.7
2009-06-17T23:3611692216-55.7
2009-06-17T23:3711962207-56.9
2009-06-17T23:3812148201-56.7
2009-06-17T23:3812190200-56.922052
2009-06-17T23:3912681185-58.3
2009-06-17T23:4012926178-55.1
2009-06-17T23:4113217170-56.5
2009-06-17T23:4213484163-55.3
2009-06-17T23:4313722157-55.5
2009-06-17T23:4313886153-54.5
2009-06-17T23:4414010150-55.124024
2009-06-17T23:4514269144-56.9
2009-06-17T23:4514402141-56.9
2009-06-17T23:4714910130-60.7
2009-06-17T23:4815355121-61.1
2009-06-17T23:4915562117-63.5
2009-06-17T23:4915668115-62.5
2009-06-17T23:5015941110-63.1
2009-06-17T23:5016054108-60.7
2009-06-17T23:5216540100-63.520010
2009-06-18T11:04161183414.211.41502
2009-06-18T11:04164183116.48.4
2009-06-18T11:04166182917.47.4
2009-06-18T11:04171282418.44.4
2009-06-18T11:05178581718.26.2
2009-06-18T11:05185881018.03.0
2009-06-18T11:06221077715.00.0
2009-06-18T11:08284872011.8-4.2
2009-06-18T11:0930877009.6-5.422510
2009-06-18T11:1138956342.6-8.4
2009-06-18T11:175613509-13.1-13.8
2009-06-18T11:185760500-14.3-14.823523
2009-06-18T11:185821496-15.1-16.2
2009-06-18T11:185913490-15.1-19.0
2009-06-18T11:196037482-14.7-19.7
2009-06-18T11:196132476-14.3-25.3
2009-06-18T11:216755438-18.9-29.9
2009-06-18T11:227226411-21.9-32.9
2009-06-18T11:237369403-21.9-32.9
2009-06-18T11:237430400-22.3-33.323530
2009-06-18T11:247652388-23.7-35.7
2009-06-18T11:257919374-25.3-37.3
2009-06-18T11:268174361-27.3-35.3
2009-06-18T11:288856328-31.9-40.9
2009-06-18T11:309480300-37.1-45.123046
2009-06-18T11:3310450260-45.1
2009-06-18T11:3410710250-46.5-55.522047
2009-06-18T11:3410763248-46.5
2009-06-18T11:3611342227-51.5
2009-06-18T11:3711574219-51.5
2009-06-18T11:3912160200-56.3-64.322056
2009-06-18T11:3912385193-57.9
2009-06-18T11:4012651185-58.3
2009-06-18T11:4112788181-59.1
2009-06-18T11:4213071173-57.7
2009-06-18T11:4313368165-58.3
2009-06-18T11:4313522161-57.1
2009-06-18T11:4313601159-57.3
2009-06-18T11:4413681157-55.3
2009-06-18T11:4413887152-55.9
2009-06-18T11:4513980150-55.1-63.124028
2009-06-18T11:4514195145-56.1
2009-06-18T11:4614418140-54.9
2009-06-18T11:4614510138-55.5
2009-06-18T11:4714650135-55.1
2009-06-18T11:4815086126-58.1
2009-06-18T11:4915393120-57.9
2009-06-18T11:5216334103-66.3
2009-06-18T11:5316520100-66.9-73.924010
2009-06-18T23:16161183026.44.4958
2009-06-18T23:16165382626.04.0
2009-06-18T23:17184580823.01.0
2009-06-18T23:21307370011.8-2.21252
2009-06-18T23:21321768810.4-2.6
2009-06-18T23:2234736678.4-5.6
2009-06-18T23:2542126091.8-8.2
2009-06-18T23:274878560-4.7-9.6
2009-06-18T23:285365526-8.7-12.2
2009-06-18T23:295633508-10.7-15.2
2009-06-18T23:305770500-11.7-15.923017
2009-06-18T23:316287467-16.1-19.7
2009-06-18T23:326352463-16.5-19.9
2009-06-18T23:326450457-16.7-22.7
2009-06-18T23:336716441-18.9-24.9
2009-06-18T23:336784437-19.1-25.1
2009-06-18T23:336939428-18.5-30.5
2009-06-18T23:346974426-18.7-30.7
2009-06-18T23:357440400-22.5-35.523030
2009-06-18T23:367814380-24.7-43.7
2009-06-18T23:388204360-27.5-45.5
2009-06-18T23:409015321-34.3-50.3
2009-06-18T23:429490300-37.1-52.123552
2009-06-18T23:439818286-38.5-54.5
2009-06-18T23:4410085275-40.7-55.7
2009-06-18T23:4510490259-42.5-54.5
2009-06-18T23:4610730250-44.5-55.522058
2009-06-18T23:5012115202-56.9-65.9
2009-06-18T23:5112180200-57.1-66.123061
2009-06-18T23:5312843180-58.3-67.3
2009-06-18T23:5312913178-56.1-66.1
2009-06-18T23:5312985176-56.1-66.1
2009-06-18T23:5413094173-54.9-64.9
2009-06-18T23:5513357166-55.1-66.1
2009-06-18T23:5513473163-54.3-65.3
2009-06-18T23:5613672158-55.3-66.3
2009-06-18T23:5714010150-54.9-65.923022
2009-06-18T23:5914678135-56.9-67.9
2009-06-19T00:0015061127-59.7-70.7
2009-06-19T00:0115210124-59.1-70.1
2009-06-19T00:0115414120-60.5-70.5
2009-06-19T00:0215678115-60.7-70.7
2009-06-19T00:0315952110-63.1-73.1
2009-06-19T00:0516540100-64.7-74.726510
2009-06-19T11:02161183613.210.200
2009-06-19T11:02169182813.26.2
2009-06-19T11:03178281913.26.2
2009-06-19T11:04213578510.85.8
2009-06-19T11:04233876610.44.4
2009-06-19T11:0627457296.83.3
2009-06-19T11:0729847086.63.0
2009-06-19T11:0730877005.82.22256
2009-06-19T11:093871635-1.1-3.1
2009-06-19T11:114478588-4.9-4.9
2009-06-19T11:124693572-6.9-7.1
2009-06-19T11:155713501-12.5-12.7
2009-06-19T11:165740500-12.7-12.923521
2009-06-19T11:176128475-16.1-16.8
2009-06-19T11:196781435-22.1-27.0
2009-06-19T11:196849431-22.9-27.9
2009-06-19T11:196934426-23.9-36.9
2009-06-19T11:207054419-25.5-39.5
2009-06-19T11:217390400-27.7-44.722520
2009-06-19T11:227663385-28.9-51.9
2009-06-19T11:248418346-33.5-51.5
2009-06-19T11:289420300-36.7-64.725019
2009-06-19T11:289513296-36.9-66.9
2009-06-19T11:3010143270-40.3-69.3
2009-06-19T11:3210670250-42.3-70.324523
2009-06-19T11:3210806245-42.7-69.7
2009-06-19T11:3210861243-42.3-70.3
2009-06-19T11:3311172232-44.3-69.3
2009-06-19T11:3611835210-46.1-69.1
2009-06-19T11:3612124201-48.1-69.1
2009-06-19T11:3712160200-47.7-69.724518
2009-06-19T11:3712226198-47.1-69.1
2009-06-19T11:3812497190-49.1-69.1
2009-06-19T11:3812742183-49.9-68.9
2009-06-19T11:4013256169-53.7-69.7
2009-06-19T11:4314020150-56.5-71.527019
2009-06-19T11:4514681135-60.3-73.3
2009-06-19T11:4514821132-60.7-73.7
2009-06-19T11:4614916130-60.1-73.1
2009-06-19T11:4615110126-60.9-73.9
2009-06-19T11:4715362121-59.7-72.7
2009-06-19T11:5016118107-65.3-76.3
2009-06-19T11:5116530100-67.1-78.125515
2009-06-19T23:07161183524.85.8702
2009-06-19T23:08178981821.82.8
2009-06-19T23:08199179919.82.8
2009-06-19T23:1231077009.21.21501
2009-06-19T23:1335516635.00.7
2009-06-19T23:1438376404.4-0.3
2009-06-19T23:1438886364.2-2.8
2009-06-19T23:1540946203.8-8.2
2009-06-19T23:1745335870.2-11.8
2009-06-19T23:174711574-1.3-11.3
2009-06-19T23:174753571-1.1-13.1
2009-06-19T23:184851564-1.3-14.3
2009-06-19T23:184922559-0.7-18.7
2009-06-19T23:185008553-0.9-24.9
2009-06-19T23:195405526-2.5-29.5
2009-06-19T23:215820500-5.9-29.92509
2009-06-19T23:236364466-11.1-31.1
2009-06-19T23:257064425-14.9-39.9
2009-06-19T23:267520400-18.5-41.52006
2009-06-19T23:277784386-20.1-43.1
2009-06-19T23:339590300-36.5-56.521514
2009-06-19T23:349871288-38.9-57.9
2009-06-19T23:3710830250-43.7-61.723525
2009-06-19T23:3710884248-43.7-61.7
2009-06-19T23:3911355231-48.1-64.1
2009-06-19T23:4212290200-54.9-67.922538
2009-06-19T23:4212354198-55.3-68.3
2009-06-19T23:4413029178-56.9-68.9
2009-06-19T23:4613357169-56.3-68.3
2009-06-19T23:4813980153-60.7-71.7
2009-06-19T23:4814110150-60.7-71.723023
2009-06-19T23:4814235147-60.7-71.7
2009-06-19T23:4914492141-62.9-73.9
2009-06-19T23:5115135127-62.5-73.5
2009-06-19T23:5215381122-64.5-74.5
2009-06-19T23:5315687116-65.7-75.7
2009-06-19T23:5315793114-65.1-75.1
2009-06-19T23:5516234106-66.3-76.3
2009-06-19T23:5616467102-65.9-75.9
2009-06-19T23:5616590100-66.5-76.523010
2009-06-20T11:02161183418.010.01654
2009-06-20T11:03178681716.88.8
2009-06-20T11:03196480015.69.6
2009-06-20T11:04217778014.010.7
2009-06-20T11:06269573310.88.6
2009-06-20T11:06297170910.67.3
2009-06-20T11:0730937009.66.419015
2009-06-20T11:0937146496.02.0
2009-06-20T11:1040466233.2-0.2
2009-06-20T11:1143895971.6-3.4
2009-06-20T11:1144975891.6-6.4
2009-06-20T11:134914559-2.1-9.1
2009-06-20T11:135014552-3.1-7.7
2009-06-20T11:145158542-3.9-11.9
2009-06-20T11:145319531-4.3-13.3
2009-06-20T11:165800500-8.3-15.32009
2009-06-20T11:186340466-13.1-16.2
2009-06-20T11:186488457-13.3-15.0
2009-06-20T11:196861435-15.1-16.2
2009-06-20T11:217500400-19.3-20.619012
2009-06-20T11:227763386-21.3-22.8
2009-06-20T11:238112368-24.5-27.5
2009-06-20T11:258600344-26.1-28.9
2009-06-20T11:279206316-31.1-34.8
2009-06-20T11:289570300-32.9-36.719532
2009-06-20T11:289688295-33.5-37.3
2009-06-20T11:3210830250-43.720546
2009-06-20T11:3511672220-51.5
2009-06-20T11:3712290200-53.921551
2009-06-20T11:3812617190-55.9
2009-06-20T11:4013319170-57.9
2009-06-20T11:4213855156-61.3
2009-06-20T11:4314100150-61.323037
2009-06-20T11:4314141149-61.1
2009-06-20T11:4514614138-62.5
2009-06-20T11:4514749135-63.7
2009-06-20T11:4614933131-62.9
2009-06-20T11:4715220125-64.7
2009-06-20T11:4715318123-64.3
2009-06-20T11:4715418121-62.9
2009-06-20T11:4815572118-62.9
2009-06-20T11:5116580100-68.521013
2009-06-20T23:04161183121.89.82755
2009-06-20T23:04169482320.68.6
2009-06-20T23:05202179217.08.0
2009-06-20T23:07249174913.46.4
2009-06-20T23:07254774412.26.2
2009-06-20T23:0930667008.45.62053
2009-06-20T23:0930786998.25.5
2009-06-20T23:0931966897.43.5
2009-06-20T23:1135956563.62.4
2009-06-20T23:1137826412.40.4
2009-06-20T23:1240236220.2-0.6
2009-06-20T23:144537583-2.5-3.0
2009-06-20T23:154940554-3.1-4.6
2009-06-20T23:165214535-4.9-7.2
2009-06-20T23:175481517-6.3-7.3
2009-06-20T23:175710502-7.7-9.8
2009-06-20T23:185760500-7.9-10.019015
2009-06-20T23:216652445-14.3-17.0
2009-06-20T23:216893431-15.7-19.2
2009-06-20T23:226963427-15.7-20.7
2009-06-20T23:227123418-16.5-22.5
2009-06-20T23:237460400-18.9-24.920016
2009-06-20T23:258114366-23.5-30.5
2009-06-20T23:268295357-24.9-30.9
2009-06-20T23:268397352-25.7-32.7
2009-06-20T23:288991324-30.1-37.1
2009-06-20T23:309463303-33.3-42.3
2009-06-20T23:309540300-33.5-44.521521
2009-06-20T23:319801289-35.1-49.1
2009-06-20T23:319972282-33.1-58.1
2009-06-20T23:3310538260-35.9-73.9
2009-06-20T23:3410810250-38.1-76.120543
2009-06-20T23:3811921212-46.7-80.7
2009-06-20T23:3912310200-49.3-77.321541
2009-06-20T23:4012542193-50.3-76.3
2009-06-20T23:4413659162-59.1-75.1
2009-06-20T23:4413895156-59.5-74.5
2009-06-20T23:4514140150-61.3-75.321532
2009-06-20T23:4514265147-62.1-76.1
2009-06-20T23:4614392144-61.1-75.1
2009-06-20T23:4714610139-62.3-76.3
2009-06-20T23:4815021130-63.1-76.1
2009-06-20T23:4915359123-65.5-77.5
2009-06-20T23:5015509120-65.5-77.5
2009-06-20T23:5015766115-67.3-79.3
2009-06-20T23:5115979111-66.1-78.1
2009-06-20T23:5216145108-66.3-78.3
2009-06-20T23:5316431103-67.1-79.1
2009-06-20T23:5316610100-68.7-79.719023
2009-06-21T11:05161183311.28.61853
2009-06-21T11:05166182814.68.6
2009-06-21T11:05169282515.88.8
2009-06-21T11:06177481716.87.8
2009-06-21T11:06200579517.24.2
2009-06-21T11:08264173711.80.8
2009-06-21T11:10299770610.0-1.0
2009-06-21T11:1030767009.4-0.629017
2009-06-21T11:1236326544.2-2.8
2009-06-21T11:1442326070.2-5.8
2009-06-21T11:144499587-0.9-6.9
2009-06-21T11:154608579-0.5-9.5
2009-06-21T11:175289531-6.5-11.5
2009-06-21T11:175333528-6.9-14.9
2009-06-21T11:175407523-7.3-16.3
2009-06-21T11:185709503-9.1-14.1
2009-06-21T11:195770500-9.3-14.324016
2009-06-21T11:196004485-11.1-18.1
2009-06-21T11:206131477-11.9-20.9
2009-06-21T11:206227471-12.3-28.3
2009-06-21T11:216357463-13.3-30.3
2009-06-21T11:216390461-13.3-24.3
2009-06-21T11:216506454-13.3-32.3
2009-06-21T11:216573450-13.7-38.7
2009-06-21T11:216641446-14.3-35.3
2009-06-21T11:226743440-14.9-39.9
2009-06-21T11:247460400-20.9-44.923521
2009-06-21T11:257590393-21.9-45.9
2009-06-21T11:257798382-22.9-49.9
2009-06-21T11:267913376-23.9-43.9
2009-06-21T11:278228360-25.9-55.9
2009-06-21T11:298871329-31.7-50.7
2009-06-21T11:319520300-35.7-62.723527
2009-06-21T11:3310145274-38.5-66.5
2009-06-21T11:3410426263-37.7-66.7
2009-06-21T11:3510780250-39.9-67.921543
2009-06-21T11:3611057240-41.5-67.5
2009-06-21T11:3711372229-44.3-67.3
2009-06-21T11:3811700218-45.5-67.5
2009-06-21T11:3912010208-48.1-68.1
2009-06-21T11:4012270200-49.5-67.521542
2009-06-21T11:4313241172-55.9-69.9
2009-06-21T11:4513659161-57.1-71.1
2009-06-21T11:4614110150-60.1-73.121033
2009-06-21T11:4714320145-62.1-74.1
2009-06-21T11:4714492141-62.9-74.9
2009-06-21T11:4814624138-62.1-74.1
2009-06-21T11:5015327123-65.9-76.9
2009-06-21T11:5015477120-63.3-74.3
2009-06-21T11:5115737115-64.5-75.5
2009-06-21T11:5215898112-63.5-74.5
2009-06-21T11:5316177107-64.1-75.1
2009-06-21T11:5416590100-66.3-77.319011
2009-06-21T23:01161183127.62.61904
2009-06-21T23:01168582426.81.8
2009-06-21T23:05279772415.8-1.2
2009-06-21T23:06308770013.2-1.821010
2009-06-21T23:0941386163.4-4.6
2009-06-21T23:1044575920.2-4.8
2009-06-21T23:145610511-9.9-11.9
2009-06-21T23:155790500-10.9-12.422518
2009-06-21T23:155929491-11.1-12.3
2009-06-21T23:176377463-13.1-16.0
2009-06-21T23:176476457-14.1-18.1
2009-06-21T23:176542453-14.9-20.9
2009-06-21T23:186710443-17.1-24.1
2009-06-21T23:197143418-18.3-26.3
2009-06-21T23:207451401-20.3-29.3
2009-06-21T23:207480400-20.5-29.524027
2009-06-21T23:217818382-23.3-36.3
2009-06-21T23:238348355-27.7-42.7
2009-06-21T23:269374307-34.9-49.9
2009-06-21T23:279511301-35.7-50.7
2009-06-21T23:279540300-35.5-50.523036
2009-06-21T23:289799289-35.1-50.1
2009-06-21T23:3010581258-39.3-54.3
2009-06-21T23:3110790250-41.3-55.323540
2009-06-21T23:3210982243-43.1-57.1
2009-06-21T23:3311409228-44.5-58.5
2009-06-21T23:3411527224-43.9-57.9
2009-06-21T23:3612146204-48.9-61.9
2009-06-21T23:3612280200-49.5-62.523038
2009-06-21T23:3612346198-49.7-62.7
2009-06-21T23:3612379197-49.1-62.1
2009-06-21T23:3812754186-50.5-63.5
2009-06-21T23:4013484166-56.5-67.5
2009-06-21T23:4113955154-59.5-69.5
2009-06-21T23:4214130150-60.1-70.121530
2009-06-21T23:4214256147-60.5-70.5
2009-06-21T23:4414784135-60.9-70.9
2009-06-21T23:4515017130-62.7-72.7
2009-06-21T23:4615209126-62.5-72.5
2009-06-21T23:4715610118-65.5-74.5
2009-06-21T23:4815873113-64.5-73.5
2009-06-21T23:4816037110-65.1-74.1
2009-06-21T23:4916205107-64.5-73.5
2009-06-21T23:5016620100-67.7-76.722020
2009-06-22T11:05161183612.29.01802
2009-06-22T11:05174282315.87.8
2009-06-22T11:07217178212.85.8
2009-06-22T11:07221477813.47.4
2009-06-22T11:08242175913.06.0
2009-06-22T11:08251075113.85.8
2009-06-22T11:08258974416.00.0
2009-06-22T11:08263574016.0-2.0
2009-06-22T11:10311070012.0-6.023510
2009-06-22T11:1133636799.8-7.2
2009-06-22T11:144488591-0.9-11.9
2009-06-22T11:154665578-1.9-16.9
2009-06-22T11:154748572-1.3-27.3
2009-06-22T11:165030552-2.5-36.5
2009-06-22T11:185711506-7.9-33.9
2009-06-22T11:195810500-7.9-43.924020
2009-06-22T11:195966490-7.9-41.9
2009-06-22T11:206337467-9.9-36.9
2009-06-22T11:247510400-18.5-47.524522
2009-06-22T11:288487350-26.5-54.5
2009-06-22T11:319590300-34.1-65.123027
2009-06-22T11:329850289-35.5-66.5
2009-06-22T11:3410523262-41.1-67.1
2009-06-22T11:3510840250-42.7-66.723026
2009-06-22T11:3610948246-43.3-66.3
2009-06-22T11:3611030243-43.3-66.3
2009-06-22T11:3811571224-47.9-66.9
2009-06-22T11:3911871214-48.5-67.5
2009-06-22T11:4012215203-51.3-68.3
2009-06-22T11:4012320200-51.5-68.523528
2009-06-22T11:4513702161-58.5-71.5
2009-06-22T11:4513780159-57.9-70.9
2009-06-22T11:4613980154-59.1-72.1
2009-06-22T11:4614103151-58.9-71.9
2009-06-22T11:4614150150-59.3-72.323522
2009-06-22T11:4714361145-60.9-72.9
2009-06-22T11:4814668138-61.1-73.1
2009-06-22T11:4915084129-62.9-74.9
2009-06-22T11:5115576119-66.1-77.1
2009-06-22T11:5216050110-67.7-77.7
2009-06-22T11:5416620100-68.5-78.520511
2009-06-22T23:02161183431.07.01007
2009-06-22T23:02176182028.25.2
2009-06-22T23:05237776422.43.4
2009-06-22T23:07313170015.8-1.21708
2009-06-22T23:07315569815.4-1.6
2009-06-22T23:1245265912.2-5.8
2009-06-22T23:134856567-0.9-5.8
2009-06-22T23:145155546-3.1-10.1
2009-06-22T23:155567518-6.9-12.9
2009-06-22T23:165860500-8.9-16.923516
2009-06-22T23:166016490-9.7-18.7
2009-06-22T23:176238476-11.7-20.7
2009-06-22T23:186416465-11.9-18.9
2009-06-22T23:186465462-11.9-20.9
2009-06-22T23:186498460-12.1-28.1
2009-06-22T23:186531458-12.1-32.1
2009-06-22T23:196648451-12.9-38.9
2009-06-22T23:207078426-16.5-41.5
2009-06-22T23:217550400-19.5-45.523018
2009-06-22T23:237967378-22.3-50.3
2009-06-22T23:268881333-30.1-59.1
2009-06-22T23:279342312-31.9-63.9
2009-06-22T23:289620300-34.3-68.321525
2009-06-22T23:3210732255-43.3-66.3
2009-06-22T23:3210870250-44.1-66.122526
2009-06-22T23:3411254236-45.5-67.5
2009-06-22T23:3712340200-51.9-68.922531
2009-06-22T23:3912806186-54.7-69.7
2009-06-22T23:4113527166-57.5-71.5
2009-06-22T23:4213836158-59.9-72.9
2009-06-22T23:4213955155-59.9-72.9
2009-06-22T23:4314160150-61.3-73.322028
2009-06-22T23:4414412144-62.7-74.7
2009-06-22T23:4514629139-62.7-74.7
2009-06-22T23:4514808135-64.1-75.1
2009-06-22T23:4715276125-65.3-76.3
2009-06-22T23:4815576119-63.7-74.7
2009-06-22T23:4815628118-64.5-75.5
2009-06-22T23:4815785115-64.1-75.1
2009-06-22T23:5016166108-66.9-77.9
2009-06-22T23:5116640100-68.5-78.520017
2009-06-23T11:04161183814.411.600
2009-06-23T11:04176382315.613.6
2009-06-23T11:05206579414.013.9
2009-06-23T11:06213978715.215.2
2009-06-23T11:06218278315.614.0
2009-06-23T11:06226977515.811.2
2009-06-23T11:07243476016.011.0
2009-06-23T11:07249075517.89.8
2009-06-23T11:07263874218.00.0
2009-06-23T11:08269573718.0-1.0
2009-06-23T11:09314070014.4-2.63055
2009-06-23T11:1241446205.8-8.2
2009-06-23T11:1342366135.4-13.6
2009-06-23T11:1445595893.0-18.0
2009-06-23T11:175518522-5.5-26.5
2009-06-23T11:185745507-6.5-28.5
2009-06-23T11:185870500-7.3-29.326011
2009-06-23T11:206495461-11.7-32.7
2009-06-23T11:227251417-18.3-35.3
2009-06-23T11:237377410-19.3-31.3
2009-06-23T11:247560400-20.7-33.722016
2009-06-23T11:247634396-20.9-34.9
2009-06-23T11:257936380-23.1-29.1

Only the first 2000 rows were shown. To view the complete dataset, download it as tab-delimited text. You can still view the full matrix in your browser, but be aware that this may crash the browser due to the huge size.